createdAt,value
2023-08-20T00:00:56.770Z,101368.66
2023-08-20T00:03:23.972Z,101329.00
2023-08-20T00:05:51.065Z,101360.09
2023-08-20T00:08:17.971Z,101377.19
2023-08-20T00:10:44.834Z,101387.16
2023-08-20T00:13:11.576Z,101374.44
2023-08-20T00:15:38.604Z,101378.88
2023-08-20T00:18:08.197Z,101389.44
2023-08-20T00:20:39.080Z,101359.16
2023-08-20T00:23:06.204Z,101357.50
2023-08-20T00:25:36.576Z,101384.81
2023-08-20T00:28:03.842Z,101358.94
2023-08-20T00:30:30.731Z,101383.97
2023-08-20T00:32:59.820Z,101376.63
2023-08-20T00:35:26.678Z,101381.72
2023-08-20T00:37:53.413Z,101235.25
2023-08-20T00:40:20.331Z,101331.03
2023-08-20T00:42:46.999Z,101392.41
2023-08-20T00:45:13.752Z,101388.72
2023-08-20T00:47:41.505Z,101384.00
2023-08-20T00:50:11.701Z,101381.63
2023-08-20T00:52:39.561Z,101382.59
2023-08-20T00:55:11.729Z,101386.47
2023-08-20T00:57:39.788Z,101320.44
2023-08-20T01:00:13.317Z,101376.41
2023-08-20T01:02:42.896Z,101311.91
2023-08-20T01:05:15.857Z,101367.22
2023-08-20T01:07:55.377Z,101347.41
2023-08-20T01:10:44.918Z,101381.94
2023-08-20T01:13:12.571Z,101401.81
2023-08-20T01:15:40.057Z,101314.84
2023-08-20T01:18:11.119Z,101369.59
2023-08-20T01:20:46.743Z,101391.78
2023-08-20T01:23:39.328Z,101404.19
2023-08-20T01:26:21.967Z,101408.91
2023-08-20T01:28:48.741Z,101284.66
2023-08-20T01:31:16.683Z,101410.22
2023-08-20T01:33:46.711Z,101405.44
2023-08-20T01:36:18.310Z,101415.78
2023-08-20T01:38:45.382Z,101326.09
2023-08-20T01:41:12.185Z,101380.59
2023-08-20T01:43:41.948Z,101423.38
2023-08-20T01:46:15.908Z,101332.84
2023-08-20T01:48:42.765Z,101305.88
2023-08-20T01:51:11.825Z,101367.16
2023-08-20T01:53:38.664Z,101418.97
2023-08-20T01:56:09.860Z,101389.84
2023-08-20T01:58:41.680Z,101372.63
2023-08-20T02:01:08.575Z,101417.75
2023-08-20T02:03:37.391Z,101413.59
2023-08-20T02:06:04.432Z,101382.31
2023-08-20T02:08:31.355Z,101409.28
2023-08-20T02:11:02.935Z,101383.28
2023-08-20T02:13:30.045Z,101411.78
2023-08-20T02:16:04.959Z,101402.75
2023-08-20T02:18:32.349Z,101410.81
2023-08-20T02:20:59.820Z,101395.84
2023-08-20T02:23:34.646Z,101390.47
2023-08-20T02:26:07.047Z,101408.78
2023-08-20T02:28:33.836Z,101359.44
2023-08-20T02:31:07.417Z,101394.91
2023-08-20T02:33:41.320Z,101394.78
2023-08-20T02:36:08.178Z,101378.69
2023-08-20T02:38:34.844Z,101393.72
2023-08-20T02:41:04.606Z,101367.53
2023-08-20T02:43:35.021Z,101402.25
2023-08-20T02:46:03.743Z,101403.94
2023-08-20T02:48:31.356Z,101400.13
2023-08-20T02:51:04.765Z,101326.88
2023-08-20T02:53:31.549Z,101352.22
2023-08-20T02:55:58.191Z,101294.94
2023-08-20T02:58:24.960Z,101378.31
2023-08-20T03:00:51.656Z,101409.94
2023-08-20T03:03:19.970Z,101408.09
2023-08-20T03:05:47.834Z,101415.19
2023-08-20T03:08:14.637Z,101362.09
2023-08-20T03:10:41.412Z,101381.09
2023-08-20T03:13:08.225Z,101399.66
2023-08-20T03:15:35.056Z,101404.41
2023-08-20T03:18:01.890Z,101388.13
2023-08-20T03:20:29.669Z,101342.13
2023-08-20T03:22:56.220Z,101395.19
2023-08-20T03:25:24.803Z,101398.97
2023-08-20T03:27:53.362Z,101384.84
2023-08-20T03:30:20.347Z,101402.66
2023-08-20T03:32:47.274Z,101407.41
2023-08-20T03:35:17.223Z,101386.00
2023-08-20T03:37:43.927Z,101373.63
2023-08-20T03:40:16.588Z,101414.50
2023-08-20T03:42:43.900Z,101399.97
2023-08-20T03:45:10.750Z,101368.91
2023-08-20T03:47:38.369Z,101345.53
2023-08-20T03:50:10.891Z,101406.47
2023-08-20T03:52:37.625Z,101415.97
2023-08-20T03:55:04.663Z,101424.31
2023-08-20T03:57:31.283Z,101425.13
2023-08-20T03:59:58.120Z,101325.75
2023-08-20T04:02:32.638Z,101425.00
2023-08-20T04:04:59.748Z,101414.16
2023-08-20T04:07:26.766Z,101417.56
2023-08-20T04:09:53.484Z,101414.84
2023-08-20T04:12:20.099Z,101390.81
2023-08-20T04:14:48.905Z,101393.78
2023-08-20T04:17:15.614Z,101412.13
2023-08-20T04:19:42.534Z,101388.13
2023-08-20T04:22:09.170Z,101421.56
2023-08-20T04:24:36.000Z,101417.69
2023-08-20T04:27:02.687Z,101414.53
2023-08-20T04:29:29.686Z,101420.50
2023-08-20T04:31:56.478Z,101428.47
2023-08-20T04:34:23.161Z,101408.84
2023-08-20T04:36:49.970Z,101383.47
2023-08-20T04:39:16.689Z,101403.44
2023-08-20T04:41:43.339Z,101416.00
2023-08-20T04:44:10.614Z,101425.56
2023-08-20T04:46:46.219Z,101426.31
2023-08-20T04:49:15.972Z,101427.25
2023-08-20T04:51:43.022Z,101424.56
2023-08-20T04:54:09.756Z,101432.94
2023-08-20T04:56:36.778Z,101384.97
2023-08-20T04:59:09.386Z,101432.94
2023-08-20T05:01:36.029Z,101403.97
2023-08-20T05:04:02.826Z,101438.13
2023-08-20T05:06:29.989Z,101430.69
2023-08-20T05:08:56.666Z,101398.06
2023-08-20T05:11:23.502Z,101399.66
2023-08-20T05:13:51.321Z,101422.97
2023-08-20T05:16:18.098Z,101423.03
2023-08-20T05:18:44.709Z,101446.63
2023-08-20T05:21:14.548Z,101451.00
2023-08-20T05:23:46.676Z,101413.72
2023-08-20T05:26:13.479Z,101430.53
2023-08-20T05:28:40.112Z,101444.66
2023-08-20T05:31:06.888Z,101458.91
2023-08-20T05:33:33.966Z,101452.69
2023-08-20T05:36:01.565Z,101442.66
2023-08-20T05:38:28.394Z,101450.13
2023-08-20T05:40:55.146Z,101431.31
2023-08-20T05:43:21.951Z,101469.63
2023-08-20T05:45:49.837Z,101480.34
2023-08-20T05:48:22.336Z,101477.34
2023-08-20T05:50:49.137Z,101471.13
2023-08-20T05:53:15.837Z,101487.78
2023-08-20T05:55:42.681Z,101421.69
2023-08-20T05:58:09.543Z,101453.03
2023-08-20T06:00:38.683Z,101414.97
2023-08-20T06:03:10.902Z,101444.41
2023-08-20T06:05:37.807Z,101490.72
2023-08-20T06:08:04.887Z,101488.75
2023-08-20T06:10:31.984Z,101452.13
2023-08-20T06:12:58.793Z,101492.78
2023-08-20T06:15:25.510Z,101458.53
2023-08-20T06:17:52.176Z,101438.31
2023-08-20T06:20:20.038Z,101460.34
2023-08-20T06:22:54.332Z,101438.25
2023-08-20T06:25:21.157Z,101497.41
2023-08-20T06:27:47.965Z,101463.91
2023-08-20T06:30:14.700Z,101462.63
2023-08-20T06:32:41.535Z,101499.63
2023-08-20T06:35:10.320Z,101506.19
2023-08-20T06:37:37.784Z,101488.06
2023-08-20T06:40:05.286Z,101512.59
2023-08-20T06:42:32.023Z,101492.13
2023-08-20T06:44:59.044Z,101492.66
2023-08-20T06:47:28.619Z,101497.66
2023-08-20T06:49:56.837Z,101477.94
2023-08-20T06:52:23.918Z,101505.25
2023-08-20T06:54:50.759Z,101435.47
2023-08-20T06:57:18.915Z,101506.81
2023-08-20T06:59:45.660Z,101508.97
2023-08-20T07:02:12.532Z,101483.91
2023-08-20T07:04:39.324Z,101478.06
2023-08-20T07:07:06.107Z,101420.09
2023-08-20T07:09:32.938Z,101485.56
2023-08-20T07:12:00.051Z,101512.53
2023-08-20T07:14:26.759Z,101514.22
2023-08-20T07:16:53.416Z,101466.44
2023-08-20T07:19:22.707Z,101510.09
2023-08-20T07:21:54.908Z,101510.44
2023-08-20T07:24:26.711Z,101491.88
2023-08-20T07:26:53.861Z,101509.34
2023-08-20T07:29:27.097Z,101520.88
2023-08-20T07:31:54.127Z,101491.88
2023-08-20T07:34:20.768Z,101519.81
2023-08-20T07:36:54.154Z,101518.50
2023-08-20T07:39:20.826Z,101504.47
2023-08-20T07:41:47.610Z,101502.56
2023-08-20T07:44:17.140Z,101526.44
2023-08-20T07:46:43.883Z,101520.16
2023-08-20T07:49:10.754Z,101467.25
2023-08-20T07:51:37.444Z,101532.03
2023-08-20T07:54:04.311Z,101502.41
2023-08-20T07:56:31.300Z,101525.47
2023-08-20T07:58:58.110Z,101533.44
2023-08-20T08:01:27.745Z,101544.06
2023-08-20T08:03:54.542Z,101511.53
2023-08-20T08:06:24.368Z,101545.31
2023-08-20T08:08:51.149Z,101542.44
2023-08-20T08:11:17.860Z,101509.91
2023-08-20T08:13:44.771Z,101497.88
2023-08-20T08:16:11.432Z,101531.75
2023-08-20T08:18:38.386Z,101534.09
2023-08-20T08:21:12.230Z,101525.88
2023-08-20T08:23:38.908Z,101537.25
2023-08-20T08:26:05.661Z,101535.84
2023-08-20T08:28:32.776Z,101521.94
2023-08-20T08:30:59.473Z,101490.22
2023-08-20T08:33:26.232Z,101533.63
2023-08-20T08:35:53.134Z,101461.88
2023-08-20T08:38:19.887Z,101483.59
2023-08-20T08:40:47.048Z,101507.19
2023-08-20T08:43:17.864Z,101462.06
2023-08-20T08:45:50.025Z,101466.44
2023-08-20T08:48:18.360Z,101535.69
2023-08-20T08:50:45.079Z,101521.56
2023-08-20T08:53:11.755Z,101446.59
2023-08-20T08:55:42.519Z,101533.06
2023-08-20T08:58:10.261Z,101522.75
2023-08-20T09:00:37.016Z,101534.41
2023-08-20T09:03:06.281Z,101535.13
2023-08-20T09:05:32.953Z,101526.97
2023-08-20T09:07:59.770Z,101480.91
2023-08-20T09:10:32.740Z,101478.03
2023-08-20T09:12:59.636Z,101526.22
2023-08-20T09:15:34.449Z,101527.38
2023-08-20T09:18:04.382Z,101532.00
2023-08-20T09:20:38.137Z,101531.00
2023-08-20T09:23:11.657Z,101512.03
2023-08-20T09:25:38.559Z,101508.88
2023-08-20T09:28:05.805Z,101504.63
2023-08-20T09:30:33.105Z,101505.13
2023-08-20T09:33:14.831Z,101507.81
2023-08-20T09:35:52.026Z,101417.91
2023-08-20T09:38:23.254Z,101514.19
2023-08-20T09:40:57.548Z,101500.56
2023-08-20T09:43:30.369Z,101465.31
2023-08-20T09:45:58.528Z,101467.69
2023-08-20T09:48:29.490Z,101472.25
2023-08-20T09:51:00.294Z,101498.84
2023-08-20T09:53:48.338Z,101489.25
2023-08-20T09:56:35.900Z,101438.56
2023-08-20T09:59:03.725Z,101459.31
2023-08-20T10:01:32.250Z,101485.34
2023-08-20T10:03:59.587Z,101482.34
2023-08-20T10:06:26.935Z,101412.59
2023-08-20T10:08:55.113Z,101435.00
2023-08-20T10:11:22.037Z,101484.97
2023-08-20T10:13:49.048Z,101476.13
2023-08-20T10:16:25.258Z,101463.44
2023-08-20T10:18:52.329Z,101468.16
2023-08-20T10:21:19.145Z,101455.19
2023-08-20T10:23:50.567Z,101466.78
2023-08-20T10:26:23.154Z,101457.97
2023-08-20T10:28:52.913Z,101476.94
2023-08-20T10:31:22.743Z,101472.78
2023-08-20T10:33:55.487Z,101414.91
2023-08-20T10:36:27.413Z,101468.03
2023-08-20T10:39:02.079Z,101457.81
2023-08-20T10:41:36.465Z,101454.72
2023-08-20T10:44:03.543Z,101437.31
2023-08-20T10:46:36.186Z,101459.53
2023-08-20T10:49:07.397Z,101425.03
2023-08-20T10:51:36.688Z,101400.81
2023-08-20T10:54:04.892Z,101464.88
2023-08-20T10:56:49.103Z,101455.63
2023-08-20T10:59:29.134Z,101467.63
2023-08-20T11:02:04.037Z,101449.44
2023-08-20T11:04:36.065Z,101454.25
2023-08-20T11:07:03.177Z,101441.53
2023-08-20T11:09:31.569Z,101450.59
2023-08-20T11:11:59.670Z,101445.53
2023-08-20T11:14:26.513Z,101374.69
2023-08-20T11:16:53.328Z,101399.38
2023-08-20T11:19:22.058Z,101388.69
2023-08-20T11:21:49.940Z,101436.38
2023-08-20T11:24:21.829Z,101441.13
2023-08-20T11:26:50.342Z,101449.31
2023-08-20T11:29:22.438Z,101397.41
2023-08-20T11:31:50.938Z,101399.59
2023-08-20T11:34:19.437Z,101440.69
2023-08-20T11:36:46.250Z,101436.28
2023-08-20T11:39:13.130Z,101435.47
2023-08-20T11:41:41.887Z,101440.84
2023-08-20T11:44:12.090Z,101392.09
2023-08-20T11:46:50.419Z,101399.09
2023-08-20T11:49:17.312Z,101429.31
2023-08-20T11:51:46.809Z,101447.81
2023-08-20T11:54:16.029Z,101353.19
2023-08-20T11:56:50.814Z,101402.41
2023-08-20T11:59:20.261Z,101452.47
2023-08-20T12:01:58.714Z,101434.69
2023-08-20T12:04:27.603Z,101436.34
2023-08-20T12:07:10.430Z,101442.22
2023-08-20T12:09:37.556Z,101437.47
2023-08-20T12:12:07.573Z,101437.38
2023-08-20T12:14:35.040Z,101436.59
2023-08-20T12:17:02.023Z,101407.81
2023-08-20T12:19:28.925Z,101426.28
2023-08-20T12:21:55.872Z,101394.50
2023-08-20T12:24:22.775Z,101427.44
2023-08-20T12:26:49.570Z,101417.19
2023-08-20T12:29:17.383Z,101419.91
2023-08-20T12:31:44.494Z,101392.97
2023-08-20T12:34:11.459Z,101403.94
2023-08-20T12:36:46.161Z,101390.78
2023-08-20T12:39:17.703Z,101400.75
2023-08-20T12:41:46.501Z,101407.78
2023-08-20T12:44:13.373Z,101407.22
2023-08-20T12:46:40.199Z,101390.88
2023-08-20T12:49:07.071Z,101380.69
2023-08-20T12:51:33.852Z,101384.22
2023-08-20T12:54:01.245Z,101368.78
2023-08-20T12:56:27.933Z,101364.84
2023-08-20T12:58:54.706Z,101283.03
2023-08-20T13:01:21.524Z,101398.69
2023-08-20T13:03:49.794Z,101346.97
2023-08-20T13:06:18.112Z,101391.69
2023-08-20T13:08:45.255Z,101363.06
2023-08-20T13:11:18.014Z,101376.16
2023-08-20T13:13:45.191Z,101371.56
2023-08-20T13:16:12.289Z,101364.41
2023-08-20T13:18:39.440Z,101316.13
2023-08-20T13:21:06.182Z,101381.72
2023-08-20T13:23:32.990Z,101369.41
2023-08-20T13:25:59.771Z,101379.16
2023-08-20T13:28:31.817Z,101343.00
2023-08-20T13:30:58.454Z,101360.50
2023-08-20T13:33:25.235Z,101360.69
2023-08-20T13:35:53.647Z,101340.19
2023-08-20T13:38:22.820Z,101377.69
2023-08-20T13:40:50.080Z,101373.75
2023-08-20T13:43:16.735Z,101359.44
2023-08-20T13:45:51.740Z,101294.31
2023-08-20T13:48:18.632Z,101363.91
2023-08-20T13:50:45.361Z,101359.91
2023-08-20T13:53:12.125Z,101360.09
2023-08-20T13:55:39.085Z,101300.34
2023-08-20T13:58:07.186Z,101369.63
2023-08-20T14:00:35.427Z,101334.56
2023-08-20T14:03:04.790Z,101369.66
2023-08-20T14:05:31.510Z,101346.88
2023-08-20T14:07:58.370Z,101356.72
2023-08-20T14:10:25.251Z,101358.41
2023-08-20T14:12:52.125Z,101360.09
2023-08-20T14:15:18.818Z,101359.00
2023-08-20T14:17:46.616Z,101359.38
2023-08-20T14:20:14.784Z,101298.88
2023-08-20T14:22:42.789Z,101343.16
2023-08-20T14:25:12.306Z,101314.91
2023-08-20T14:27:39.969Z,101327.97
2023-08-20T14:30:09.140Z,101357.47
2023-08-20T14:32:38.317Z,101299.53
2023-08-20T14:35:11.254Z,101233.13
2023-08-20T14:37:38.322Z,101350.16
2023-08-20T14:40:07.758Z,101357.03
2023-08-20T14:42:35.215Z,101323.88
2023-08-20T14:45:02.151Z,101348.41
2023-08-20T14:47:28.806Z,101318.75
2023-08-20T14:49:55.518Z,101342.25
2023-08-20T14:52:22.164Z,101330.31
2023-08-20T14:54:48.915Z,101328.66
2023-08-20T14:57:18.333Z,101334.94
2023-08-20T14:59:45.198Z,101342.72
2023-08-20T15:02:11.875Z,101325.63
2023-08-20T15:04:38.551Z,101343.59
2023-08-20T15:07:05.340Z,101336.97
2023-08-20T15:09:36.616Z,101321.34
2023-08-20T15:12:03.958Z,101252.44
2023-08-20T15:14:30.810Z,101318.84
2023-08-20T15:16:57.547Z,101291.16
2023-08-20T15:19:24.181Z,101340.03
2023-08-20T15:21:52.997Z,101319.53
2023-08-20T15:24:19.559Z,101322.78
2023-08-20T15:26:46.249Z,101346.81
2023-08-20T15:29:14.361Z,101347.06
2023-08-20T15:31:42.149Z,101300.88
2023-08-20T15:34:08.836Z,101316.63
2023-08-20T15:36:43.798Z,101328.50
2023-08-20T15:39:10.497Z,101351.50
2023-08-20T15:41:37.628Z,101333.31
2023-08-20T15:44:04.471Z,101345.03
2023-08-20T15:46:31.427Z,101329.13
2023-08-20T15:48:58.290Z,101259.31
2023-08-20T15:51:25.977Z,101308.84
2023-08-20T15:53:52.679Z,101337.44
2023-08-20T15:56:19.393Z,101332.25
2023-08-20T15:58:48.879Z,101251.13
2023-08-20T16:01:16.542Z,101321.81
2023-08-20T16:03:46.724Z,101337.44
2023-08-20T16:06:15.022Z,101340.28
2023-08-20T16:08:41.758Z,101348.63
2023-08-20T16:11:09.283Z,101348.06
2023-08-20T16:13:36.010Z,101347.81
2023-08-20T16:16:02.735Z,101313.13
2023-08-20T16:18:34.048Z,101344.78
2023-08-20T16:21:01.982Z,101332.38
2023-08-20T16:23:29.143Z,101350.88
2023-08-20T16:25:55.882Z,101344.78
2023-08-20T16:28:22.548Z,101347.81
2023-08-20T16:30:49.391Z,101315.94
2023-08-20T16:33:16.358Z,101343.16
2023-08-20T16:35:50.536Z,101328.91
2023-08-20T16:38:17.603Z,101348.72
2023-08-20T16:40:51.502Z,101328.34
2023-08-20T16:43:18.907Z,101329.41
2023-08-20T16:45:46.053Z,101318.47
2023-08-20T16:48:15.829Z,101346.50
2023-08-20T16:50:42.489Z,101344.03
2023-08-20T16:53:12.252Z,101339.13
2023-08-20T16:55:38.981Z,101346.28
2023-08-20T16:58:05.809Z,101310.25
2023-08-20T17:03:08.157Z,101202.34
2023-08-20T17:05:34.934Z,101344.44
2023-08-20T17:08:02.385Z,101319.09
2023-08-20T17:10:32.248Z,101369.72
2023-08-20T17:12:59.784Z,101369.78
2023-08-20T17:15:29.693Z,101327.59
2023-08-20T17:18:00.072Z,101362.59
2023-08-20T17:20:27.139Z,101365.94
2023-08-20T17:22:53.879Z,101356.31
2023-08-20T17:25:23.523Z,101331.19
2023-08-20T17:27:50.262Z,101275.56
2023-08-20T17:30:16.956Z,101368.94
2023-08-20T17:32:50.111Z,101375.84
2023-08-20T17:35:17.522Z,101332.03
2023-08-20T17:37:44.275Z,101348.81
2023-08-20T17:40:18.851Z,101365.06
2023-08-20T17:42:45.658Z,101362.59
2023-08-20T17:45:12.408Z,101303.06
2023-08-20T17:47:39.572Z,101371.69
2023-08-20T17:50:07.101Z,101362.03
2023-08-20T17:52:36.437Z,101382.94
2023-08-20T17:55:04.362Z,101326.69
2023-08-20T17:57:31.403Z,101356.47
2023-08-20T17:59:58.440Z,101381.28
2023-08-20T18:02:25.288Z,101323.63
2023-08-20T18:04:52.861Z,101384.03
2023-08-20T18:07:23.950Z,101384.78
2023-08-20T18:09:50.718Z,101361.63
2023-08-20T18:12:17.525Z,101397.66
2023-08-20T18:14:44.143Z,101360.72
2023-08-20T18:17:10.972Z,101385.81
2023-08-20T18:19:42.313Z,101398.75
2023-08-20T18:22:09.176Z,101395.97
2023-08-20T18:24:35.960Z,101401.75
2023-08-20T18:27:05.265Z,101327.50
2023-08-20T18:29:32.046Z,101407.00
2023-08-20T18:31:58.815Z,101362.25
2023-08-20T18:34:28.924Z,101409.97
2023-08-20T18:36:59.624Z,101396.94
2023-08-20T18:39:26.771Z,101300.88
2023-08-20T18:41:53.711Z,101399.09
2023-08-20T18:44:20.573Z,101397.69
2023-08-20T18:46:50.377Z,101386.91
2023-08-20T18:49:18.967Z,101430.97
2023-08-20T18:51:49.334Z,101376.22
2023-08-20T18:54:16.935Z,101441.63
2023-08-20T18:56:45.608Z,101441.34
2023-08-20T18:59:12.367Z,101407.03
2023-08-20T19:01:39.039Z,101321.69
2023-08-20T19:04:05.976Z,101453.91
2023-08-20T19:06:32.954Z,101437.50
2023-08-20T19:08:59.818Z,101460.44
2023-08-20T19:11:26.564Z,101348.13
2023-08-20T19:13:55.933Z,101467.16
2023-08-20T19:16:23.466Z,101482.25
2023-08-20T19:18:52.268Z,101451.03
2023-08-20T19:21:21.913Z,101466.69
2023-08-20T19:23:49.690Z,101476.13
2023-08-20T19:26:18.772Z,101465.00
2023-08-20T19:28:45.548Z,101488.75
2023-08-20T19:31:13.341Z,101477.03
2023-08-20T19:33:40.284Z,101382.38
2023-08-20T19:36:08.496Z,101487.72
2023-08-20T19:38:35.355Z,101409.94
2023-08-20T19:41:01.977Z,101392.19
2023-08-20T19:43:28.762Z,101404.97
2023-08-20T19:45:55.849Z,101456.25
2023-08-20T19:48:22.688Z,101468.41
2023-08-20T19:50:49.471Z,101496.25
2023-08-20T19:53:16.274Z,101500.88
2023-08-20T19:55:43.242Z,101450.53
2023-08-20T19:58:10.371Z,101519.91
2023-08-20T20:00:38.353Z,101473.97
2023-08-20T20:03:06.716Z,101477.97
2023-08-20T20:05:33.384Z,101522.13
2023-08-20T20:08:00.617Z,101515.81
2023-08-20T20:10:28.095Z,101519.31
2023-08-20T20:12:59.904Z,101513.38
2023-08-20T20:15:26.632Z,101524.53
2023-08-20T20:17:53.903Z,101528.44
2023-08-20T20:20:22.354Z,101530.03
2023-08-20T20:22:49.242Z,101529.06
2023-08-20T20:25:15.938Z,101526.38
2023-08-20T20:27:43.161Z,101525.56
2023-08-20T20:30:11.640Z,101520.75
2023-08-20T20:32:38.777Z,101538.94
2023-08-20T20:35:10.149Z,101520.91
2023-08-20T20:37:41.665Z,101529.41
2023-08-20T20:40:11.755Z,101485.63
2023-08-20T20:42:39.257Z,101543.59
2023-08-20T20:45:07.430Z,101494.81
2023-08-20T20:47:34.409Z,101509.13
2023-08-20T20:50:01.157Z,101533.56
2023-08-20T20:52:28.111Z,101374.56
2023-08-20T20:54:57.907Z,101538.69
2023-08-20T20:57:24.708Z,101536.69
2023-08-20T20:59:51.412Z,101465.41
2023-08-20T21:02:20.135Z,101514.59
2023-08-20T21:04:46.883Z,101481.84
2023-08-20T21:07:13.487Z,101543.31
2023-08-20T21:09:44.048Z,101537.41
2023-08-20T21:12:11.422Z,101541.00
2023-08-20T21:14:38.184Z,101494.47
2023-08-20T21:17:05.196Z,101559.34
2023-08-20T21:19:46.442Z,101556.28
2023-08-20T21:22:15.588Z,101509.00
2023-08-20T21:24:45.479Z,101532.81
2023-08-20T21:27:14.679Z,101545.81
2023-08-20T21:29:41.757Z,101534.59
2023-08-20T21:32:09.555Z,101507.09
2023-08-20T21:34:36.208Z,101558.78
2023-08-20T21:37:03.021Z,101533.00
2023-08-20T21:39:29.626Z,101545.22
2023-08-20T21:41:56.356Z,101487.94
2023-08-20T21:44:23.164Z,101543.97
2023-08-20T21:46:54.007Z,101485.78
2023-08-20T21:49:24.440Z,101565.75
2023-08-20T21:51:53.993Z,101555.25
2023-08-20T21:54:20.848Z,101533.31
2023-08-20T21:56:56.294Z,101568.88
2023-08-20T21:59:24.052Z,101568.69
2023-08-20T22:01:50.900Z,101564.44
2023-08-20T22:04:17.941Z,101529.31
2023-08-20T22:06:48.960Z,101559.63
2023-08-20T22:09:16.466Z,101569.13
2023-08-20T22:11:43.080Z,101535.41
2023-08-20T22:14:09.859Z,101567.34
2023-08-20T22:16:36.609Z,101507.69
2023-08-20T22:19:03.436Z,101516.41
2023-08-20T22:21:30.178Z,101564.59
2023-08-20T22:23:57.024Z,101562.84
2023-08-20T22:26:23.871Z,101558.00
2023-08-20T22:28:53.565Z,101554.59
2023-08-20T22:31:20.517Z,101558.03
2023-08-20T22:33:47.182Z,101551.38
2023-08-20T22:36:14.249Z,101556.59
2023-08-20T22:38:40.866Z,101576.91
2023-08-20T22:41:07.958Z,101542.13
2023-08-20T22:43:34.773Z,101551.25
2023-08-20T22:46:01.476Z,101573.03
2023-08-20T22:48:28.162Z,101570.50
2023-08-20T22:50:54.937Z,101576.13
2023-08-20T22:53:21.895Z,101531.19
2023-08-20T22:55:52.435Z,101574.84
2023-08-20T22:58:19.843Z,101507.56
2023-08-20T23:00:47.354Z,101564.03
2023-08-20T23:03:14.387Z,101563.41
2023-08-20T23:05:41.718Z,101484.28
2023-08-20T23:08:08.955Z,101547.75
2023-08-20T23:10:38.406Z,101478.44
2023-08-20T23:13:05.561Z,101520.03
2023-08-20T23:15:32.363Z,101567.47
2023-08-20T23:18:03.317Z,101552.38
2023-08-20T23:20:30.872Z,101574.94
2023-08-20T23:22:57.583Z,101545.81
2023-08-20T23:25:24.290Z,101574.38
2023-08-20T23:27:51.395Z,101569.50
2023-08-20T23:30:18.329Z,101563.09
2023-08-20T23:32:51.616Z,101549.75
2023-08-20T23:35:18.438Z,101559.03
2023-08-20T23:37:45.243Z,101546.69
2023-08-20T23:40:12.827Z,101543.13
2023-08-20T23:42:40.307Z,101553.34
2023-08-20T23:45:08.047Z,101572.50
2023-08-20T23:47:37.331Z,101515.31
2023-08-20T23:50:04.542Z,101550.03
2023-08-20T23:52:31.276Z,101548.09
2023-08-20T23:55:01.454Z,101526.94
2023-08-20T23:57:30.914Z,101563.56
2023-08-20T23:59:57.694Z,101553.25
